createdAt,value
2023-02-05T00:01:30.121Z,4.30
2023-02-05T00:03:57.224Z,4.30
2023-02-05T00:06:24.354Z,4.30
2023-02-05T00:08:51.510Z,4.40
2023-02-05T00:11:18.693Z,4.30
2023-02-05T00:13:45.827Z,4.30
2023-02-05T00:16:15.939Z,4.30
2023-02-05T00:18:43.481Z,4.30
2023-02-05T00:21:11.195Z,4.30
2023-02-05T00:23:38.848Z,4.30
2023-02-05T00:26:07.671Z,4.30
2023-02-05T00:28:36.608Z,4.30
2023-02-05T00:31:15.497Z,4.30
2023-02-05T00:33:43.258Z,4.30
2023-02-05T00:36:12.761Z,4.30
2023-02-05T00:38:41.506Z,4.30
2023-02-05T00:41:08.790Z,4.30
2023-02-05T00:43:35.939Z,4.40
2023-02-05T00:46:03.373Z,4.40
2023-02-05T00:48:30.387Z,4.40
2023-02-05T00:50:58.531Z,4.40
2023-02-05T00:53:26.343Z,4.40
2023-02-05T00:55:53.418Z,4.40
2023-02-05T00:58:20.714Z,4.40
2023-02-05T01:00:48.206Z,4.40
2023-02-05T01:03:15.409Z,4.40
2023-02-05T01:05:42.688Z,4.40
2023-02-05T01:08:12.361Z,4.40
2023-02-05T01:10:44.629Z,4.40
2023-02-05T01:13:11.738Z,4.40
2023-02-05T01:15:39.014Z,4.30
2023-02-05T01:18:06.354Z,4.30
2023-02-05T01:20:39.861Z,4.30
2023-02-05T01:23:07.187Z,4.30
2023-02-05T01:25:34.647Z,4.30
2023-02-05T01:28:02.027Z,4.20
2023-02-05T01:30:29.084Z,4.20
2023-02-05T01:32:56.209Z,4.20
2023-02-05T01:35:23.308Z,4.10
2023-02-05T01:37:50.501Z,4.10
2023-02-05T01:40:18.379Z,4.10
2023-02-05T01:42:45.912Z,4.10
2023-02-05T01:45:33.016Z,4.10
2023-02-05T01:48:02.397Z,4.10
2023-02-05T01:50:32.499Z,4.20
2023-02-05T01:53:03.513Z,4.10
2023-02-05T01:55:31.865Z,4.10
2023-02-05T01:58:01.726Z,4.10
2023-02-05T02:00:28.792Z,4.10
2023-02-05T02:02:55.985Z,4.10
2023-02-05T02:05:23.223Z,4.10
2023-02-05T02:07:50.320Z,4.10
2023-02-05T02:10:19.498Z,4.10
2023-02-05T02:12:48.513Z,4.10
2023-02-05T02:15:21.229Z,4.10
2023-02-05T02:17:51.616Z,4.10
2023-02-05T02:20:26.366Z,4.10
2023-02-05T02:22:56.216Z,4.10
2023-02-05T02:25:58.212Z,4.10
2023-02-05T02:28:33.959Z,4.20
2023-02-05T02:31:32.202Z,4.10
2023-02-05T02:34:15.116Z,4.10
2023-02-05T02:36:56.884Z,4.10
2023-02-05T02:39:30.781Z,4.20
2023-02-05T02:42:06.372Z,4.10
2023-02-05T02:44:45.927Z,4.10
2023-02-05T02:47:22.313Z,4.10
2023-02-05T02:50:03.493Z,4.10
2023-02-05T02:52:36.124Z,4.10
2023-02-05T02:55:08.410Z,4.10
2023-02-05T02:57:39.150Z,4.10
2023-02-05T03:00:20.386Z,4.10
2023-02-05T03:02:50.543Z,4.10
2023-02-05T03:05:22.426Z,4.10
2023-02-05T03:08:06.356Z,4.10
2023-02-05T03:10:48.326Z,4.00
2023-02-05T03:13:15.836Z,4.00
2023-02-05T03:15:44.954Z,4.00
2023-02-05T03:18:14.043Z,4.00
2023-02-05T03:21:10.862Z,4.00
2023-02-05T03:23:37.914Z,4.00
2023-02-05T03:26:05.172Z,4.00
2023-02-05T03:28:32.520Z,4.00
2023-02-05T03:31:06.840Z,4.00
2023-02-05T03:33:56.697Z,4.00
2023-02-05T03:36:42.830Z,4.00
2023-02-05T03:39:39.406Z,4.00
2023-02-05T03:42:12.448Z,4.00
2023-02-05T03:44:45.054Z,4.00
2023-02-05T03:47:45.637Z,4.00
2023-02-05T03:50:21.895Z,4.10
2023-02-05T03:52:57.171Z,4.10
2023-02-05T03:55:29.381Z,4.10
2023-02-05T03:58:04.699Z,4.10
2023-02-05T04:00:33.288Z,4.10
2023-02-05T04:03:00.353Z,4.10
2023-02-05T04:05:27.393Z,4.10
2023-02-05T04:07:54.605Z,4.20
2023-02-05T04:10:22.678Z,4.20
2023-02-05T04:12:52.799Z,4.20
2023-02-05T04:15:19.827Z,4.20
2023-02-05T04:17:46.867Z,4.20
2023-02-05T04:20:14.063Z,4.20
2023-02-05T04:22:41.226Z,4.20
2023-02-05T04:25:08.499Z,4.30
2023-02-05T04:27:35.753Z,4.20
2023-02-05T04:30:02.917Z,4.20
2023-02-05T04:32:30.610Z,4.20
2023-02-05T04:34:57.687Z,4.20
2023-02-05T04:37:25.396Z,4.20
2023-02-05T04:39:52.448Z,4.20
2023-02-05T04:42:19.555Z,4.20
2023-02-05T04:44:46.675Z,4.10
2023-02-05T04:47:14.277Z,4.20
2023-02-05T04:49:41.425Z,4.10
2023-02-05T04:52:08.588Z,4.10
2023-02-05T04:54:37.423Z,4.10
2023-02-05T04:57:04.553Z,4.20
2023-02-05T04:59:31.830Z,4.20
2023-02-05T05:02:00.338Z,4.20
2023-02-05T05:04:27.582Z,4.20
2023-02-05T05:06:54.706Z,4.20
2023-02-05T05:09:24.326Z,4.20
2023-02-05T05:11:52.372Z,4.20
2023-02-05T05:14:19.855Z,4.20
2023-02-05T05:16:46.924Z,4.20
2023-02-05T05:19:13.993Z,4.20
2023-02-05T05:21:40.990Z,4.20
2023-02-05T05:24:08.493Z,4.20
2023-02-05T05:26:35.732Z,4.10
2023-02-05T05:29:02.900Z,4.10
2023-02-05T05:31:29.906Z,4.10
2023-02-05T05:33:56.986Z,4.10
2023-02-05T05:36:24.157Z,4.10
2023-02-05T05:38:51.248Z,4.10
2023-02-05T05:41:40.462Z,4.10
2023-02-05T05:44:07.606Z,4.10
2023-02-05T05:46:36.314Z,4.20
2023-02-05T05:49:04.760Z,4.30
2023-02-05T05:51:32.919Z,4.30
2023-02-05T05:54:00.056Z,4.30
2023-02-05T05:56:27.249Z,4.30
2023-02-05T05:58:54.411Z,4.30
2023-02-05T06:01:23.065Z,4.30
2023-02-05T06:03:50.723Z,4.40
2023-02-05T06:06:17.932Z,4.40
2023-02-05T06:08:45.055Z,4.40
2023-02-05T06:11:12.475Z,4.40
2023-02-05T06:13:39.595Z,4.40
2023-02-05T06:16:09.810Z,4.40
2023-02-05T06:18:37.206Z,4.40
2023-02-05T06:21:05.969Z,4.40
2023-02-05T06:23:34.510Z,4.40
2023-02-05T06:26:01.556Z,4.40
2023-02-05T06:28:28.685Z,4.40
2023-02-05T06:30:55.822Z,4.40
2023-02-05T06:33:22.937Z,4.40
2023-02-05T06:35:50.066Z,4.40
2023-02-05T06:38:17.116Z,4.40
2023-02-05T06:40:44.133Z,4.40
2023-02-05T06:43:11.201Z,4.50
2023-02-05T06:45:38.271Z,4.40
2023-02-05T06:48:06.568Z,4.50
2023-02-05T06:50:34.318Z,4.50
2023-02-05T06:53:01.558Z,4.50
2023-02-05T06:55:28.615Z,4.70
2023-02-05T06:57:55.714Z,4.70
2023-02-05T07:00:22.878Z,4.80
2023-02-05T07:02:50.987Z,4.70
2023-02-05T07:05:18.168Z,4.70
2023-02-05T07:07:45.807Z,4.70
2023-02-05T07:10:12.801Z,4.70
2023-02-05T07:12:39.905Z,4.70
2023-02-05T07:15:08.446Z,4.70
2023-02-05T07:17:35.485Z,4.70
2023-02-05T07:20:02.647Z,4.70
2023-02-05T07:22:30.689Z,4.80
2023-02-05T07:24:58.785Z,4.80
2023-02-05T07:27:25.872Z,4.80
2023-02-05T07:29:53.252Z,4.80
2023-02-05T07:32:20.339Z,4.80
2023-02-05T07:34:47.389Z,4.80
2023-02-05T07:37:14.483Z,4.90
2023-02-05T07:39:41.652Z,4.90
2023-02-05T07:42:09.096Z,5.00
2023-02-05T07:44:36.100Z,5.00
2023-02-05T07:47:03.267Z,5.00
2023-02-05T07:49:30.290Z,5.00
2023-02-05T07:51:57.314Z,5.00
2023-02-05T07:54:25.769Z,5.00
2023-02-05T07:56:52.962Z,5.10
2023-02-05T07:59:20.036Z,5.10
2023-02-05T08:01:47.104Z,5.10
2023-02-05T08:04:14.186Z,5.10
2023-02-05T08:06:41.315Z,5.10
2023-02-05T08:09:08.398Z,5.10
2023-02-05T08:11:35.504Z,5.10
2023-02-05T08:14:02.741Z,5.10
2023-02-05T08:16:29.751Z,5.20
2023-02-05T08:18:56.901Z,5.20
2023-02-05T08:21:23.986Z,5.10
2023-02-05T08:23:51.125Z,5.10
2023-02-05T08:26:18.669Z,5.10
2023-02-05T08:28:46.225Z,5.10
2023-02-05T08:31:17.501Z,5.10
2023-02-05T08:33:45.872Z,5.10
2023-02-05T08:36:12.946Z,5.10
2023-02-05T08:38:40.044Z,5.10
2023-02-05T08:41:12.732Z,5.10
2023-02-05T08:43:45.816Z,5.20
2023-02-05T08:46:15.237Z,5.20
2023-02-05T08:48:42.530Z,5.20
2023-02-05T08:51:11.601Z,5.10
2023-02-05T08:53:39.531Z,5.10
2023-02-05T08:56:09.203Z,5.10
2023-02-05T08:58:36.786Z,5.10
2023-02-05T09:01:08.004Z,5.00
2023-02-05T09:03:35.184Z,5.00
2023-02-05T09:06:08.041Z,5.00
2023-02-05T09:08:35.547Z,5.00
2023-02-05T09:11:03.861Z,5.00
2023-02-05T09:13:30.945Z,5.00
2023-02-05T09:15:58.161Z,5.00
2023-02-05T09:18:25.270Z,5.00
2023-02-05T09:20:54.670Z,5.10
2023-02-05T09:23:21.865Z,5.10
2023-02-05T09:25:50.062Z,5.20
2023-02-05T09:28:17.265Z,5.20
2023-02-05T09:30:46.207Z,5.20
2023-02-05T09:33:14.702Z,5.10
2023-02-05T09:35:43.149Z,5.10
2023-02-05T09:38:14.301Z,5.10
2023-02-05T09:40:50.562Z,5.10
2023-02-05T09:43:55.484Z,5.10
2023-02-05T09:46:45.005Z,5.00
2023-02-05T09:49:27.872Z,4.90
2023-02-05T09:52:03.895Z,4.90
2023-02-05T09:54:35.456Z,4.80
2023-02-05T09:57:11.090Z,4.90
2023-02-05T09:59:46.001Z,4.90
2023-02-05T10:02:35.374Z,4.90
2023-02-05T10:05:03.230Z,4.90
2023-02-05T10:07:43.418Z,4.90
2023-02-05T10:10:24.454Z,4.90
2023-02-05T10:12:57.267Z,4.90
2023-02-05T10:15:30.182Z,4.90
2023-02-05T10:18:22.126Z,4.90
2023-02-05T10:20:52.845Z,4.90
2023-02-05T10:23:25.789Z,4.90
2023-02-05T10:26:10.587Z,4.90
2023-02-05T10:28:55.653Z,4.80
2023-02-05T10:31:42.131Z,4.90
2023-02-05T10:34:19.872Z,4.90
2023-02-05T10:36:51.486Z,4.80
2023-02-05T10:39:20.963Z,4.90
2023-02-05T10:41:57.893Z,4.90
2023-02-05T10:44:35.228Z,4.90
2023-02-05T10:47:24.608Z,4.90
2023-02-05T10:50:03.175Z,5.00
2023-02-05T10:52:31.328Z,4.90
2023-02-05T10:54:58.353Z,4.90
2023-02-05T10:57:32.680Z,5.10
2023-02-05T11:00:04.436Z,5.20
2023-02-05T11:02:39.424Z,5.20
2023-02-05T11:05:38.672Z,5.20
2023-02-05T11:08:05.796Z,5.20
2023-02-05T11:10:35.574Z,5.10
2023-02-05T11:13:11.520Z,5.20
2023-02-05T11:16:12.682Z,5.20
2023-02-05T11:18:43.575Z,5.30
2023-02-05T11:21:10.879Z,5.20
2023-02-05T11:23:43.249Z,5.20
2023-02-05T11:26:22.319Z,5.10
2023-02-05T11:28:49.440Z,5.10
2023-02-05T11:31:24.412Z,5.10
2023-02-05T11:33:52.605Z,5.10
2023-02-05T11:36:24.215Z,5.00
2023-02-05T11:38:59.298Z,5.00
2023-02-05T11:41:48.424Z,5.00
2023-02-05T11:44:24.534Z,5.00
2023-02-05T11:46:57.106Z,5.00
2023-02-05T11:49:36.699Z,5.10
2023-02-05T11:52:15.349Z,5.10
2023-02-05T11:54:47.720Z,5.10
2023-02-05T11:57:17.444Z,5.10
2023-02-05T12:00:13.033Z,5.10
2023-02-05T12:02:42.002Z,5.10
2023-02-05T12:05:21.425Z,5.10
2023-02-05T12:08:26.893Z,5.10
2023-02-05T12:11:08.430Z,5.10
2023-02-05T12:14:02.714Z,5.10
2023-02-05T12:16:41.731Z,5.10
2023-02-05T12:19:23.950Z,5.10
2023-02-05T12:22:00.155Z,5.00
2023-02-05T12:25:04.496Z,5.00
2023-02-05T12:27:43.613Z,5.00
2023-02-05T12:30:19.103Z,5.00
2023-02-05T12:33:32.584Z,5.00
2023-02-05T12:36:05.495Z,5.00
2023-02-05T12:38:57.856Z,4.90
2023-02-05T12:41:31.042Z,4.90
2023-02-05T12:44:32.167Z,4.90
2023-02-05T12:47:14.187Z,4.90
2023-02-05T12:49:57.847Z,5.00
2023-02-05T12:52:38.690Z,4.90
2023-02-05T12:55:13.832Z,4.90
2023-02-05T12:57:49.974Z,5.00
2023-02-05T13:00:23.895Z,4.90
2023-02-05T13:03:04.019Z,5.00
2023-02-05T13:05:41.938Z,4.90
2023-02-05T13:08:12.415Z,4.90
2023-02-05T13:10:48.233Z,4.90
2023-02-05T13:13:22.471Z,5.00
2023-02-05T13:15:52.397Z,4.90
2023-02-05T13:18:25.780Z,4.90
2023-02-05T13:21:25.526Z,4.90
2023-02-05T13:24:44.122Z,4.90
2023-02-05T13:27:53.070Z,4.90
2023-02-05T13:30:30.099Z,5.00
2023-02-05T13:33:01.127Z,4.90
2023-02-05T13:35:34.852Z,4.90
2023-02-05T13:38:10.886Z,5.00
2023-02-05T13:40:59.263Z,5.00
2023-02-05T13:43:50.168Z,5.00
2023-02-05T13:46:41.723Z,5.00
2023-02-05T13:49:29.912Z,5.00
2023-02-05T13:52:14.643Z,5.00
2023-02-05T13:55:19.074Z,5.00
2023-02-05T13:57:51.843Z,5.00
2023-02-05T14:00:20.871Z,4.90
2023-02-05T14:02:49.593Z,4.90
2023-02-05T14:05:27.475Z,4.90
2023-02-05T14:07:57.971Z,4.90
2023-02-05T14:10:29.828Z,4.90
2023-02-05T14:13:23.074Z,4.90
2023-02-05T14:15:51.556Z,4.90
2023-02-05T14:18:40.243Z,4.90
2023-02-05T14:21:32.631Z,4.90
2023-02-05T14:24:02.870Z,5.00
2023-02-05T14:26:56.731Z,5.00
2023-02-05T14:29:42.715Z,4.90
2023-02-05T14:32:34.086Z,5.00
2023-02-05T14:35:01.992Z,5.00
2023-02-05T14:37:38.229Z,5.00
2023-02-05T14:40:22.444Z,4.90
2023-02-05T14:42:57.132Z,4.90
2023-02-05T14:45:30.547Z,4.90
2023-02-05T14:47:58.229Z,4.80
2023-02-05T14:50:29.956Z,4.80
2023-02-05T14:53:05.971Z,4.80
2023-02-05T14:55:43.905Z,4.80
2023-02-05T14:58:44.540Z,4.80
2023-02-05T15:01:33.172Z,4.70
2023-02-05T15:04:04.952Z,4.70
2023-02-05T15:06:39.663Z,4.60
2023-02-05T15:09:19.151Z,4.50
2023-02-05T15:12:16.099Z,4.50
2023-02-05T15:14:54.889Z,4.40
2023-02-05T15:17:32.356Z,4.40
2023-02-05T15:20:18.881Z,4.50
2023-02-05T15:22:52.550Z,4.40
2023-02-05T15:25:22.398Z,4.40
2023-02-05T15:27:55.579Z,4.40
2023-02-05T15:30:30.218Z,4.40
2023-02-05T15:33:05.791Z,4.40
2023-02-05T15:35:34.792Z,4.50
2023-02-05T15:38:25.207Z,4.50
2023-02-05T15:40:53.132Z,4.40
2023-02-05T15:43:22.042Z,4.50
2023-02-05T15:46:05.316Z,4.50
2023-02-05T15:48:35.553Z,4.40
2023-02-05T15:51:41.317Z,4.40
2023-02-05T15:54:08.686Z,4.40
2023-02-05T15:56:39.605Z,4.40
2023-02-05T15:59:19.479Z,4.40
2023-02-05T16:02:18.224Z,4.40
2023-02-05T16:04:45.628Z,4.40
2023-02-05T16:07:18.570Z,4.30
2023-02-05T16:09:52.827Z,4.40
2023-02-05T16:12:20.699Z,4.30
2023-02-05T16:15:04.916Z,4.30
2023-02-05T16:17:34.811Z,4.30
2023-02-05T16:20:07.866Z,4.30
2023-02-05T16:22:49.354Z,4.30
2023-02-05T16:25:16.380Z,4.20
2023-02-05T16:27:48.137Z,4.20
2023-02-05T16:30:33.441Z,4.20
2023-02-05T16:33:02.939Z,4.20
2023-02-05T16:35:44.948Z,4.20
2023-02-05T16:38:17.048Z,4.20
2023-02-05T16:40:48.734Z,4.20
2023-02-05T16:43:40.600Z,4.20
2023-02-05T16:46:07.790Z,4.20
2023-02-05T16:48:49.800Z,4.20
2023-02-05T16:51:25.900Z,4.20
2023-02-05T16:53:53.131Z,4.20
2023-02-05T16:56:39.720Z,4.20
2023-02-05T16:59:07.065Z,4.20
2023-02-05T17:01:44.220Z,4.20
2023-02-05T17:04:37.157Z,4.20
2023-02-05T17:07:20.314Z,4.20
2023-02-05T17:09:49.283Z,4.20
2023-02-05T17:12:27.182Z,4.20
2023-02-05T17:14:59.373Z,4.20
2023-02-05T17:17:27.795Z,4.20
2023-02-05T17:20:10.233Z,4.10
2023-02-05T17:22:37.810Z,4.10
2023-02-05T17:25:06.124Z,4.20
2023-02-05T17:27:37.314Z,4.10
2023-02-05T17:30:06.862Z,4.10
2023-02-05T17:32:34.019Z,4.10
2023-02-05T17:35:01.793Z,4.10
2023-02-05T17:37:28.852Z,4.10
2023-02-05T17:39:57.805Z,4.10
2023-02-05T17:42:26.604Z,4.10
2023-02-05T17:44:53.899Z,4.10
2023-02-05T17:47:21.100Z,4.10
2023-02-05T17:49:48.176Z,4.10
2023-02-05T17:52:15.981Z,4.10
2023-02-05T17:54:43.747Z,4.10
2023-02-05T17:57:18.353Z,4.10
2023-02-05T17:59:45.959Z,4.10
2023-02-05T18:02:14.722Z,4.10
2023-02-05T18:04:43.645Z,4.10
2023-02-05T18:07:19.613Z,4.10
2023-02-05T18:09:47.853Z,4.10
2023-02-05T18:12:14.955Z,4.10
2023-02-05T18:14:42.684Z,4.10
2023-02-05T18:17:09.801Z,4.20
2023-02-05T18:19:36.897Z,4.20
2023-02-05T18:22:04.745Z,4.20
2023-02-05T18:24:33.148Z,4.20
2023-02-05T18:27:02.742Z,4.20
2023-02-05T18:29:30.233Z,4.20
2023-02-05T18:31:57.878Z,4.20
2023-02-05T18:34:24.937Z,4.20
2023-02-05T18:36:51.922Z,4.20
2023-02-05T18:39:19.278Z,4.20
2023-02-05T18:41:46.907Z,4.20
2023-02-05T18:44:16.049Z,4.20
2023-02-05T18:46:43.262Z,4.20
2023-02-05T18:49:10.349Z,4.20
2023-02-05T18:51:38.274Z,4.20
2023-02-05T18:54:08.669Z,4.20
2023-02-05T18:56:35.854Z,4.20
2023-02-05T18:59:06.221Z,4.20
2023-02-05T19:01:36.749Z,4.20
2023-02-05T19:04:09.306Z,4.20
2023-02-05T19:06:40.004Z,4.20
2023-02-05T19:09:07.140Z,4.20
2023-02-05T19:11:41.491Z,4.20
2023-02-05T19:14:12.044Z,4.20
2023-02-05T19:16:40.878Z,4.20
2023-02-05T19:19:08.845Z,4.20
2023-02-05T19:21:36.326Z,4.20
2023-02-05T19:24:10.047Z,4.20
2023-02-05T19:26:39.148Z,4.10
2023-02-05T19:29:09.034Z,4.10
2023-02-05T19:31:37.388Z,4.10
2023-02-05T19:34:05.099Z,4.10
2023-02-05T19:36:32.738Z,4.10
2023-02-05T19:39:01.542Z,4.20
2023-02-05T19:41:29.336Z,4.20
2023-02-05T19:43:59.513Z,4.10
2023-02-05T19:46:31.516Z,4.10
2023-02-05T19:49:14.391Z,4.20
2023-02-05T19:51:46.309Z,4.10
2023-02-05T19:54:15.074Z,4.20
2023-02-05T19:56:47.077Z,4.10
2023-02-05T19:59:17.070Z,4.20
2023-02-05T20:01:45.730Z,4.20
2023-02-05T20:04:22.397Z,4.10
2023-02-05T20:06:50.145Z,4.10
2023-02-05T20:09:17.444Z,4.10
2023-02-05T20:11:50.441Z,4.10
2023-02-05T20:14:19.603Z,4.10
2023-02-05T20:16:50.164Z,4.10
2023-02-05T20:19:18.126Z,4.20
2023-02-05T20:21:46.641Z,4.20
2023-02-05T20:24:16.401Z,4.20
2023-02-05T20:26:44.245Z,4.20
2023-02-05T20:29:30.338Z,4.20
2023-02-05T20:31:58.678Z,4.20
2023-02-05T20:34:35.311Z,4.20
2023-02-05T20:37:05.728Z,4.20
2023-02-05T20:39:34.956Z,4.10
2023-02-05T20:42:02.651Z,4.10
2023-02-05T20:44:32.286Z,4.10
2023-02-05T20:46:59.504Z,4.10
2023-02-05T20:49:26.621Z,4.10
2023-02-05T20:51:54.302Z,4.10
2023-02-05T20:54:22.515Z,4.10
2023-02-05T20:57:02.186Z,4.00
2023-02-05T20:59:32.705Z,4.10
2023-02-05T21:02:00.422Z,4.00
2023-02-05T21:04:27.529Z,4.00
2023-02-05T21:06:54.822Z,4.00
2023-02-05T21:09:23.678Z,4.00
2023-02-05T21:11:55.428Z,4.00
2023-02-05T21:14:23.430Z,4.00
2023-02-05T21:16:50.506Z,4.00
2023-02-05T21:19:18.331Z,4.00
2023-02-05T21:21:45.430Z,4.00
2023-02-05T21:24:14.910Z,3.90
2023-02-05T21:26:44.381Z,3.90
2023-02-05T21:29:14.704Z,3.90
2023-02-05T21:31:46.522Z,3.90
2023-02-05T21:34:16.923Z,3.90
2023-02-05T21:36:44.717Z,3.90
2023-02-05T21:39:12.630Z,3.90
2023-02-05T21:41:39.903Z,3.90
2023-02-05T21:44:07.129Z,3.90
2023-02-05T21:46:34.792Z,3.90
2023-02-05T21:49:02.165Z,3.90
2023-02-05T21:51:32.111Z,3.90
2023-02-05T21:54:01.321Z,3.90
2023-02-05T21:56:32.734Z,3.80
2023-02-05T21:58:59.792Z,3.80
2023-02-05T22:01:29.295Z,3.80
2023-02-05T22:04:01.735Z,3.80
2023-02-05T22:06:34.840Z,3.80
2023-02-05T22:09:04.316Z,3.80
2023-02-05T22:11:31.686Z,3.80
2023-02-05T22:13:58.720Z,3.80
2023-02-05T22:16:28.446Z,3.80
2023-02-05T22:18:56.602Z,3.80
2023-02-05T22:21:27.141Z,3.70
2023-02-05T22:23:55.860Z,3.70
2023-02-05T22:26:25.951Z,3.70
2023-02-05T22:28:53.363Z,3.60
2023-02-05T22:31:21.522Z,3.50
2023-02-05T22:33:50.117Z,3.50
2023-02-05T22:36:23.773Z,3.40
2023-02-05T22:38:51.757Z,3.40
2023-02-05T22:41:22.427Z,3.40
2023-02-05T22:43:50.044Z,3.30
2023-02-05T22:46:20.362Z,3.30
2023-02-05T22:48:49.466Z,3.30
2023-02-05T22:51:20.028Z,3.30
2023-02-05T22:53:50.924Z,3.20
2023-02-05T22:56:18.312Z,3.20
2023-02-05T22:58:46.938Z,3.10
2023-02-05T23:01:19.777Z,3.00
2023-02-05T23:03:49.429Z,3.00
2023-02-05T23:06:28.946Z,3.10
2023-02-05T23:09:22.453Z,3.10
2023-02-05T23:11:49.496Z,3.10
2023-02-05T23:14:17.523Z,3.10
2023-02-05T23:16:46.384Z,3.20
2023-02-05T23:19:16.314Z,3.20
2023-02-05T23:21:43.770Z,3.20
2023-02-05T23:24:11.997Z,3.20
2023-02-05T23:26:42.820Z,3.20
2023-02-05T23:29:11.860Z,3.20
2023-02-05T23:31:39.250Z,3.10
2023-02-05T23:34:06.863Z,3.10
2023-02-05T23:36:33.944Z,3.00
2023-02-05T23:39:01.108Z,3.00
2023-02-05T23:41:35.977Z,3.00
2023-02-05T23:44:10.780Z,3.00
2023-02-05T23:46:38.847Z,2.90
2023-02-05T23:49:06.712Z,2.90
2023-02-05T23:51:34.203Z,2.80
2023-02-05T23:54:01.543Z,2.80
2023-02-05T23:56:29.628Z,2.80
2023-02-05T23:58:56.817Z,2.70
